Time;durP1;ratioP1;P1;durP2;ratioP2;P2;SDS_P1;SDS_P2;PMS_P1;PMS_P2;Temp;Humidity;BMP_temperature;BMP_pressure;BME280_temperature;BME280_humidity;BME280_pressure;Samples;Min_cycle;Max_cycle;Signal;HPM_P1;HPM_P2
2021/07/18 00:00:50;;;;;;;3.47;2.50;;;20.10;99.90;;;;;;5010276;28;20038;-68
2021/07/18 00:03:53;;;;;;;3.10;2.40;;;20.00;99.90;;;;;;5010544;28;20121;-67
2021/07/18 00:06:58;;;;;;;6.00;2.55;;;20.10;99.90;;;;;;5010878;28;20496;-68
2021/07/18 00:10:03;;;;;;;3.22;2.58;;;20.10;99.90;;;;;;5010255;28;20060;-67
2021/07/18 00:13:07;;;;;;;3.28;2.35;;;20.10;99.90;;;;;;5010473;28;20049;-67
2021/07/18 00:16:11;;;;;;;4.07;2.33;;;20.00;99.90;;;;;;5010281;28;20042;-67
2021/07/18 00:19:15;;;;;;;6.95;2.40;;;20.00;99.90;;;;;;5010142;28;20431;-67
2021/07/18 00:22:19;;;;;;;4.50;2.70;;;20.00;99.90;;;;;;5009991;28;20044;-68
2021/07/18 00:25:24;;;;;;;4.32;2.50;;;19.90;99.90;;;;;;5010325;28;20463;-67
2021/07/18 00:28:28;;;;;;;6.03;2.25;;;19.80;99.90;;;;;;5010200;28;20499;-67
2021/07/18 00:31:33;;;;;;;4.03;2.72;;;19.80;99.90;;;;;;5009705;28;20041;-67
2021/07/18 00:34:43;;;;;;;4.05;2.40;;;19.80;99.90;;;;;;5009355;28;20041;-67
2021/07/18 00:37:48;;;;;;;6.47;2.80;;;19.80;99.90;;;;;;5010211;28;20041;-68
2021/07/18 00:40:51;;;;;;;3.60;2.78;;;19.80;99.90;;;;;;5009587;28;20045;-67
2021/07/18 00:43:55;;;;;;;4.28;2.70;;;19.90;99.90;;;;;;5010122;28;20045;-67
2021/07/18 00:47:00;;;;;;;5.00;2.92;;;19.90;99.90;;;;;;5009647;28;20049;-67
2021/07/18 00:50:07;;;;;;;4.50;2.75;;;19.90;99.90;;;;;;5009501;28;20052;-68
2021/07/18 00:53:12;;;;;;;5.20;2.67;;;19.80;99.90;;;;;;5009891;28;20045;-68
2021/07/18 00:56:16;;;;;;;4.43;3.08;;;19.80;99.90;;;;;;5009998;28;20044;-68
2021/07/18 00:59:20;;;;;;;3.75;2.78;;;19.70;99.90;;;;;;5010043;28;20048;-67
2021/07/18 01:02:31;;;;;;;4.35;2.50;;;19.70;99.90;;;;;;5009887;28;20037;-67
2021/07/18 01:05:35;;;;;;;4.22;2.65;;;19.70;99.90;;;;;;5009878;28;20328;-67
2021/07/18 01:08:40;;;;;;;6.20;2.75;;;19.70;99.90;;;;;;5009561;28;20053;-68
2021/07/18 01:11:44;;;;;;;4.75;2.95;;;19.80;99.90;;;;;;5009712;28;20057;-67
2021/07/18 01:14:49;;;;;;;3.45;2.50;;;19.90;99.90;;;;;;5009948;28;20049;-67
2021/07/18 01:17:52;;;;;;;5.05;3.17;;;20.10;99.90;;;;;;5009860;28;20049;-67
2021/07/18 01:20:56;;;;;;;6.10;2.67;;;20.10;99.90;;;;;;5009622;28;20053;-66
2021/07/18 01:24:01;;;;;;;3.00;2.63;;;20.30;99.90;;;;;;5009893;28;20041;-66
2021/07/18 01:27:06;;;;;;;3.63;2.70;;;20.30;99.90;;;;;;5009921;28;20041;-67
2021/07/18 01:30:13;;;;;;;7.63;2.85;;;20.40;99.90;;;;;;5009343;28;20044;-67
2021/07/18 01:33:17;;;;;;;4.20;2.80;;;20.50;99.90;;;;;;5009998;28;20045;-67
2021/07/18 01:36:21;;;;;;;6.65;2.90;;;20.50;99.90;;;;;;5009585;28;20053;-67
2021/07/18 01:39:25;;;;;;;4.40;2.78;;;20.50;99.90;;;;;;5009852;28;20117;-68
2021/07/18 01:42:30;;;;;;;3.22;2.40;;;20.40;99.90;;;;;;5009477;28;20053;-69
2021/07/18 01:45:34;;;;;;;5.47;3.00;;;20.30;99.90;;;;;;5009598;28;20052;-68
2021/07/18 01:48:40;;;;;;;4.15;2.95;;;20.30;99.90;;;;;;5008747;28;20044;-67
2021/07/18 01:51:44;;;;;;;5.60;2.60;;;20.30;99.90;;;;;;5009320;28;20045;-67
2021/07/18 01:54:48;;;;;;;4.10;2.78;;;20.20;99.90;;;;;;5009912;28;20041;-68
2021/07/18 01:57:53;;;;;;;5.65;3.10;;;20.20;99.90;;;;;;5009833;28;20041;-67
2021/07/18 02:00:57;;;;;;;3.60;2.70;;;20.10;99.90;;;;;;5012345;28;20053;-67
2021/07/18 02:04:02;;;;;;;4.68;2.75;;;20.00;99.90;;;;;;5012579;28;20050;-68
2021/07/18 02:07:07;;;;;;;3.10;2.20;;;19.90;99.90;;;;;;5012776;28;20045;-69
2021/07/18 02:10:16;;;;;;;4.03;2.92;;;19.80;99.90;;;;;;5011261;28;20068;-68
2021/07/18 02:13:20;;;;;;;4.22;2.80;;;19.80;99.90;;;;;;5012682;28;20121;-68
2021/07/18 02:16:24;;;;;;;6.85;2.78;;;19.70;99.90;;;;;;5012597;28;20392;-68
2021/07/18 02:19:30;;;;;;;5.78;3.20;;;19.50;99.90;;;;;;5012400;28;20049;-68
2021/07/18 02:22:49;;;;;;;4.18;3.15;;;19.50;99.90;;;;;;5012316;28;20041;-68
2021/07/18 02:25:53;;;;;;;3.78;2.65;;;19.40;99.90;;;;;;5011736;28;20049;-68
2021/07/18 02:28:58;;;;;;;3.78;2.78;;;19.40;99.90;;;;;;5012531;28;20056;-69
2021/07/18 02:32:02;;;;;;;3.88;2.72;;;19.30;99.90;;;;;;5011929;28;20121;-68
2021/07/18 02:35:09;;;;;;;5.10;3.00;;;19.40;99.90;;;;;;5012168;28;20400;-68
2021/07/18 02:38:13;;;;;;;9.05;3.33;;;19.40;99.90;;;;;;5011633;28;20428;-68
2021/07/18 02:41:17;;;;;;;5.28;3.17;;;19.40;99.90;;;;;;5011881;28;20458;-68
2021/07/18 02:44:21;;;;;;;4.35;2.72;;;19.30;99.90;;;;;;5011916;28;20570;-68
2021/07/18 02:47:25;;;;;;;5.85;3.00;;;19.30;99.90;;;;;;5012013;28;20049;-68
2021/07/18 02:50:29;;;;;;;5.75;3.20;;;19.30;99.90;;;;;;5011399;28;20499;-68
2021/07/18 02:53:34;;;;;;;7.55;3.55;;;19.40;99.90;;;;;;5012157;28;20053;-69
2021/07/18 02:56:37;;;;;;;3.92;2.80;;;19.50;99.90;;;;;;5012085;28;20045;-69
2021/07/18 02:59:41;;;;;;;3.70;2.92;;;19.50;99.90;;;;;;5010855;28;20056;-68
2021/07/18 03:02:46;;;;;;;4.22;2.85;;;19.50;99.90;;;;;;5011688;28;20041;-68
2021/07/18 03:05:50;;;;;;;3.97;2.63;;;19.50;99.90;;;;;;5011931;28;20045;-68
2021/07/18 03:08:54;;;;;;;6.70;2.83;;;19.40;99.90;;;;;;5011295;28;20049;-67
2021/07/18 03:11:58;;;;;;;6.32;3.25;;;19.40;99.90;;;;;;5010835;28;20052;-68
2021/07/18 03:15:05;;;;;;;4.22;2.80;;;19.40;99.90;;;;;;5011336;28;20389;-68
2021/07/18 03:18:09;;;;;;;5.75;3.60;;;19.40;99.90;;;;;;5011431;28;20049;-68
2021/07/18 03:21:13;;;;;;;4.35;3.17;;;19.40;99.90;;;;;;5010791;28;20044;-68
2021/07/18 03:24:17;;;;;;;5.20;3.00;;;19.40;99.90;;;;;;5011323;28;20041;-67
2021/07/18 03:27:22;;;;;;;6.93;2.97;;;19.40;99.90;;;;;;5011155;28;20041;-69
2021/07/18 03:30:26;;;;;;;4.82;3.00;;;19.40;99.90;;;;;;5010868;28;20057;-68
2021/07/18 03:33:30;;;;;;;6.30;2.90;;;19.40;99.90;;;;;;5011015;28;20057;-68
2021/07/18 03:36:35;;;;;;;6.30;3.08;;;19.30;99.90;;;;;;5010427;28;20396;-68
2021/07/18 03:39:39;;;;;;;4.30;2.80;;;19.20;99.90;;;;;;5011175;28;20061;-68
2021/07/18 03:42:45;;;;;;;8.02;3.22;;;19.10;99.90;;;;;;5010573;28;20045;-67
2021/07/18 03:45:50;;;;;;;6.38;3.17;;;19.10;99.90;;;;;;5011023;28;20045;-68
2021/07/18 03:48:55;;;;;;;4.35;3.35;;;19.10;99.90;;;;;;4999034;28;20046;-68
2021/07/18 03:51:59;;;;;;;8.98;3.20;;;19.00;99.90;;;;;;5010444;28;20053;-68
2021/07/18 03:55:04;;;;;;;5.22;3.13;;;19.00;99.90;;;;;;5010965;28;20060;-68
2021/07/18 03:58:09;;;;;;;4.07;3.08;;;19.00;99.90;;;;;;5010684;28;20052;-67
2021/07/18 04:01:13;;;;;;;6.00;3.20;;;19.00;99.90;;;;;;5010380;28;20060;-68
2021/07/18 04:04:18;;;;;;;4.45;3.08;;;19.10;99.90;;;;;;5010601;28;20045;-67
2021/07/18 04:07:22;;;;;;;4.53;3.03;;;19.10;99.90;;;;;;5010674;28;20049;-69
2021/07/18 04:10:25;;;;;;;5.57;3.17;;;19.20;99.90;;;;;;5010223;28;20611;-68
2021/07/18 04:13:30;;;;;;;5.20;2.95;;;19.30;99.90;;;;;;5010405;28;20053;-68
2021/07/18 04:16:33;;;;;;;4.57;3.20;;;19.30;99.90;;;;;;5010362;28;20053;-68
2021/07/18 04:19:37;;;;;;;5.55;3.00;;;19.40;99.90;;;;;;5010250;28;20040;-67
2021/07/18 04:22:41;;;;;;;5.32;3.45;;;19.50;99.90;;;;;;5008950;28;20049;-68
2021/07/18 04:25:46;;;;;;;5.45;2.97;;;19.60;99.90;;;;;;5010266;28;20041;-68
2021/07/18 04:28:50;;;;;;;4.88;2.90;;;19.70;99.90;;;;;;5010387;28;20045;-68
2021/07/18 04:31:54;;;;;;;4.85;3.20;;;19.90;99.90;;;;;;5007041;28;20052;-69
2021/07/18 04:34:58;;;;;;;4.80;2.70;;;20.00;99.90;;;;;;5010384;28;20048;-68
2021/07/18 04:38:06;;;;;;;4.47;2.80;;;20.10;99.90;;;;;;5010098;28;20041;-68
2021/07/18 04:41:10;;;;;;;6.82;3.47;;;20.30;99.90;;;;;;5009851;28;20057;-68
2021/07/18 04:44:15;;;;;;;6.72;3.08;;;20.60;99.90;;;;;;5009824;28;20049;-68
2021/07/18 04:47:19;;;;;;;5.05;2.58;;;21.50;99.90;;;;;;5008797;28;20130;-67
2021/07/18 04:50:25;;;;;;;8.90;3.55;;;22.80;99.90;;;;;;5009831;28;20559;-68
2021/07/18 04:53:29;;;;;;;5.00;2.70;;;23.50;99.90;;;;;;5009691;28;20053;-68
2021/07/18 04:56:32;;;;;;;3.17;2.20;;;23.80;99.90;;;;;;5009939;28;20381;-68
2021/07/18 04:59:38;;;;;;;5.10;2.40;;;24.10;99.90;;;;;;5009775;28;20045;-67
2021/07/18 05:02:43;;;;;;;4.20;2.28;;;24.70;99.90;;;;;;5009605;28;20041;-68
2021/07/18 05:05:47;;;;;;;4.60;2.50;;;24.60;99.90;;;;;;5009777;28;20042;-67
2021/07/18 05:08:51;;;;;;;3.03;2.13;;;24.00;99.90;;;;;;5010007;28;20033;-68
2021/07/18 05:11:55;;;;;;;3.53;2.30;;;23.40;99.90;;;;;;5009299;28;20045;-67
2021/07/18 05:14:59;;;;;;;3.38;2.80;;;22.80;99.90;;;;;;5009775;28;20045;-68
2021/07/18 05:18:14;;;;;;;6.10;2.50;;;22.30;99.90;;;;;;5009698;28;20036;-68
2021/07/18 05:21:18;;;;;;;8.15;2.80;;;21.90;99.90;;;;;;5009168;28;20037;-68
2021/07/18 05:24:22;;;;;;;4.88;2.97;;;21.80;99.90;;;;;;5009429;28;20041;-67
2021/07/18 05:27:26;;;;;;;6.38;2.88;;;21.60;99.90;;;;;;5009504;28;20049;-68
2021/07/18 05:30:31;;;;;;;6.28;2.80;;;21.60;99.90;;;;;;5009494;28;20040;-68
2021/07/18 05:33:35;;;;;;;2.97;2.47;;;21.70;99.90;;;;;;5010888;28;20101;-68
2021/07/18 05:36:39;;;;;;;4.70;3.10;;;21.70;99.90;;;;;;5013327;28;20409;-68
2021/07/18 05:39:43;;;;;;;5.10;2.88;;;21.80;99.90;;;;;;5013173;28;20049;-68
2021/07/18 05:42:47;;;;;;;5.78;3.17;;;21.80;99.90;;;;;;5013033;28;20049;-68
2021/07/18 05:45:52;;;;;;;4.20;3.10;;;21.90;99.90;;;;;;5013263;28;20570;-67
2021/07/18 05:48:55;;;;;;;3.05;2.60;;;21.90;99.90;;;;;;5013428;28;20045;-68
2021/07/18 05:51:59;;;;;;;6.38;2.75;;;22.00;99.90;;;;;;5012597;28;20046;-68
2021/07/18 05:55:05;;;;;;;5.47;3.20;;;22.00;99.90;;;;;;5012930;28;20041;-69
2021/07/18 05:58:11;;;;;;;4.03;2.80;;;22.10;99.90;;;;;;5012837;28;20359;-68
2021/07/18 06:01:15;;;;;;;7.22;3.17;;;22.20;99.90;;;;;;5012686;28;20354;-68
2021/07/18 06:04:19;;;;;;;6.15;3.20;;;22.20;99.90;;;;;;5012380;28;20507;-67
2021/07/18 06:07:23;;;;;;;6.57;3.20;;;22.30;99.90;;;;;;5012866;28;20049;-69
2021/07/18 06:10:27;;;;;;;4.22;3.13;;;22.30;99.90;;;;;;5012274;28;20056;-68
2021/07/18 06:13:31;;;;;;;3.78;3.22;;;22.30;99.90;;;;;;5012818;28;20049;-68
2021/07/18 06:16:35;;;;;;;4.25;3.03;;;22.40;99.90;;;;;;5012795;28;20522;-69
2021/07/18 06:19:40;;;;;;;6.28;3.40;;;22.40;99.90;;;;;;5012744;28;20056;-68
2021/07/18 06:22:43;;;;;;;5.70;3.47;;;22.60;99.90;;;;;;5012795;28;20041;-68
2021/07/18 06:25:47;;;;;;;4.55;3.40;;;22.70;99.90;;;;;;5012743;28;20041;-68
2021/07/18 06:28:51;;;;;;;5.03;3.17;;;22.70;99.90;;;;;;5012591;28;20053;-68
2021/07/18 06:31:56;;;;;;;3.38;2.78;;;22.70;99.90;;;;;;5012143;28;20053;-68
2021/07/18 06:35:00;;;;;;;4.72;3.55;;;22.80;99.90;;;;;;5012343;28;20053;-68
2021/07/18 06:38:04;;;;;;;5.25;3.00;;;22.80;99.90;;;;;;5012306;28;20392;-68
2021/07/18 06:41:08;;;;;;;4.28;3.50;;;22.80;99.90;;;;;;5011827;28;20400;-68
2021/07/18 06:44:12;;;;;;;6.65;2.72;;;23.00;99.90;;;;;;5011441;28;20053;-68
2021/07/18 06:47:16;;;;;;;6.00;3.22;;;23.00;99.90;;;;;;5012127;28;20393;-68
2021/07/18 06:50:20;;;;;;;8.73;3.40;;;23.20;99.90;;;;;;5011771;28;20048;-68
2021/07/18 06:53:24;;;;;;;4.72;3.00;;;23.30;99.90;;;;;;5012066;28;20049;-68
2021/07/18 06:56:30;;;;;;;6.80;3.35;;;23.40;99.90;;;;;;5011952;28;20045;-68
2021/07/18 06:59:34;;;;;;;5.80;3.28;;;23.50;99.90;;;;;;5012198;28;20057;-68
2021/07/18 07:02:38;;;;;;;4.85;3.30;;;23.50;99.90;;;;;;5011785;28;20057;-67
2021/07/18 07:05:42;;;;;;;5.28;3.42;;;23.50;99.90;;;;;;5011421;28;20045;-68
2021/07/18 07:08:46;;;;;;;4.03;3.00;;;23.50;99.90;;;;;;5011482;28;20045;-68
2021/07/18 07:11:50;;;;;;;5.85;3.10;;;23.60;99.90;;;;;;5011514;28;20064;-68
2021/07/18 07:14:54;;;;;;;7.93;3.63;;;23.70;99.90;;;;;;5011309;28;20052;-68
2021/07/18 07:17:58;;;;;;;5.13;3.05;;;23.70;99.90;;;;;;5011449;28;20072;-68
2021/07/18 07:21:03;;;;;;;8.23;3.60;;;23.80;99.90;;;;;;5011007;28;20492;-68
2021/07/18 07:24:07;;;;;;;4.65;3.08;;;23.80;99.90;;;;;;5011380;28;20049;-68
2021/07/18 07:27:12;;;;;;;6.35;3.28;;;23.90;99.90;;;;;;5011390;28;20053;-69
2021/07/18 07:30:16;;;;;;;4.80;3.28;;;24.10;99.90;;;;;;5010857;28;20049;-68
2021/07/18 07:33:20;;;;;;;3.30;2.90;;;24.20;99.90;;;;;;5011610;28;20049;-68
2021/07/18 07:36:24;;;;;;;5.90;3.28;;;24.30;99.90;;;;;;5011273;28;20061;-69
2021/07/18 07:39:28;;;;;;;7.40;3.30;;;24.50;99.90;;;;;;5011113;28;20044;-68
2021/07/18 07:42:33;;;;;;;5.60;3.42;;;24.70;99.90;;;;;;5010769;28;20053;-70
2021/07/18 07:45:37;;;;;;;5.22;4.18;;;24.90;99.90;;;;;;5010647;28;20049;-68
2021/07/18 07:48:41;;;;;;;5.35;3.55;;;25.20;99.90;;;;;;5010666;28;20041;-69
2021/07/18 07:51:45;;;;;;;6.38;4.13;;;25.40;99.90;;;;;;5010301;28;20045;-68
2021/07/18 07:54:51;;;;;;;6.55;4.28;;;25.80;99.90;;;;;;5010843;28;20053;-69
2021/07/18 07:57:55;;;;;;;6.30;4.13;;;26.00;99.90;;;;;;5010562;28;20045;-68
2021/07/18 08:01:00;;;;;;;4.97;3.75;;;26.30;99.90;;;;;;5009981;28;20396;-68
2021/07/18 08:04:04;;;;;;;6.47;4.22;;;26.40;99.90;;;;;;5010516;28;20045;-68
2021/07/18 08:07:08;;;;;;;5.10;4.13;;;26.60;99.90;;;;;;5010056;28;20491;-68
2021/07/18 08:10:15;;;;;;;5.60;4.90;;;26.60;99.90;;;;;;5010020;28;20053;-68
2021/07/18 08:13:19;;;;;;;7.47;5.32;;;26.70;99.60;;;;;;5010549;28;20249;-69
2021/07/18 08:16:23;;;;;;;10.25;5.30;;;26.70;99.70;;;;;;5010244;28;20582;-68
2021/07/18 08:19:27;;;;;;;8.00;4.95;;;26.50;99.50;;;;;;5010321;28;20052;-68
2021/07/18 08:22:32;;;;;;;12.30;7.82;;;26.40;99.70;;;;;;5010326;28;20045;-68
2021/07/18 08:25:37;;;;;;;6.70;5.13;;;26.30;99.50;;;;;;5010151;28;20041;-68
2021/07/18 08:28:41;;;;;;;11.68;6.63;;;26.30;99.40;;;;;;5010211;28;20654;-68
2021/07/18 08:31:45;;;;;;;14.23;7.05;;;26.50;99.90;;;;;;5009911;28;20057;-69
2021/07/18 08:34:49;;;;;;;9.15;6.32;;;26.50;99.40;;;;;;5009903;28;20049;-68
2021/07/18 08:37:53;;;;;;;15.25;9.45;;;26.40;99.30;;;;;;5010237;28;20215;-68
2021/07/18 08:40:57;;;;;;;14.30;9.00;;;26.40;99.50;;;;;;5009737;28;20045;-69
2021/07/18 08:44:01;;;;;;;12.73;8.05;;;26.70;99.30;;;;;;5009084;28;20048;-69
2021/07/18 08:47:06;;;;;;;11.30;6.05;;;26.80;99.20;;;;;;5009743;28;20044;-68
2021/07/18 08:50:10;;;;;;;7.32;5.40;;;27.10;99.30;;;;;;5009745;28;20056;-69
2021/07/18 08:53:15;;;;;;;6.10;5.50;;;27.30;99.00;;;;;;5009921;28;20053;-68
2021/07/18 08:56:19;;;;;;;8.00;5.53;;;27.40;98.80;;;;;;5009647;28;20045;-68
2021/07/18 08:59:23;;;;;;;10.95;4.85;;;27.40;98.40;;;;;;5009758;28;20044;-68
2021/07/18 09:02:27;;;;;;;5.35;3.78;;;27.50;99.30;;;;;;5009791;28;20400;-68
2021/07/18 09:05:31;;;;;;;7.70;5.07;;;27.40;99.00;;;;;;5008881;28;20049;-68
2021/07/18 09:08:47;;;;;;;8.50;5.25;;;27.40;98.20;;;;;;5013070;28;20045;-67
2021/07/18 09:11:58;;;;;;;5.03;4.15;;;27.40;98.80;;;;;;5013150;28;20037;-67
2021/07/18 09:15:03;;;;;;;;;;;27.00;99.40;;;;;;5014238;28;20045;-68
2021/07/18 09:18:26;;;;;;;8.32;4.43;;;27.10;99.10;;;;;;5013495;28;19916;-68
2021/07/18 09:21:30;;;;;;;10.43;4.80;;;27.30;99.70;;;;;;5013223;28;20325;-68
2021/07/18 09:24:45;;;;;;;11.98;5.28;;;27.30;99.90;;;;;;5013381;28;20425;-68
2021/07/18 09:27:49;;;;;;;6.93;4.30;;;27.00;99.40;;;;;;5017957;28;20040;-68
2021/07/18 09:30:53;;;;;;;6.22;4.57;;;28.40;99.50;;;;;;5026539;28;20503;-68
2021/07/18 09:34:20;;;;;;;6.80;4.32;;;31.00;97.80;;;;;;5033243;28;20491;-68
2021/07/18 09:37:33;;;;;;;5.13;4.00;;;33.70;94.70;;;;;;5033450;28;20056;-68
2021/07/18 09:40:39;;;;;;;4.97;4.03;;;35.40;91.30;;;;;;5031265;28;20068;-68
2021/07/18 09:43:43;;;;;;;9.57;4.30;;;36.10;89.40;;;;;;5014581;28;20057;-68
2021/07/18 09:46:47;;;;;;;7.60;3.95;;;37.60;87.00;;;;;;5013360;28;20491;-68
2021/07/18 09:49:52;;;;;;;8.73;3.30;;;38.70;83.50;;;;;;5029260;28;20391;-68
2021/07/18 09:53:16;;;;;;;4.97;3.10;;;38.80;81.80;;;;;;5026003;28;20052;-67
2021/07/18 09:56:22;;;;;;;5.68;3.85;;;40.00;80.00;;;;;;5023450;28;20396;-71
2021/07/18 09:59:27;;;;;;;6.25;3.40;;;40.20;76.40;;;;;;5023744;28;20516;-67
2021/07/18 10:02:32;;;;;;;7.78;3.42;;;41.50;76.20;;;;;;5021604;28;20050;-68
2021/07/18 10:05:36;;;;;;;5.30;3.13;;;42.20;73.50;;;;;;5012784;28;20049;-67
2021/07/18 10:08:45;;;;;;;5.60;3.22;;;42.00;72.80;;;;;;5027579;28;20488;-68
2021/07/18 10:11:50;;;;;;;4.28;3.38;;;41.50;73.20;;;;;;5026028;28;20056;-69
2021/07/18 10:14:57;;;;;;;5.15;3.00;;;41.20;72.90;;;;;;5021843;28;20404;-69
2021/07/18 10:18:01;;;;;;;6.43;3.20;;;41.30;72.20;;;;;;5026520;28;20727;-68
2021/07/18 10:21:07;;;;;;;6.00;3.20;;;41.50;70.90;;;;;;5022602;28;20403;-68
2021/07/18 10:24:14;;;;;;;4.47;3.20;;;42.10;72.10;;;;;;5026043;28;20044;-67
2021/07/18 10:27:20;;;;;;;4.50;3.30;;;42.80;70.30;;;;;;5028735;28;20048;-68
2021/07/18 10:30:26;;;;;;;4.45;2.90;;;42.70;67.90;;;;;;5027117;28;20048;-67
2021/07/18 10:33:32;;;;;;;3.55;3.00;;;42.80;68.40;;;;;;5024591;28;20052;-68
2021/07/18 10:36:37;;;;;;;10.93;3.42;;;43.50;66.90;;;;;;5021165;28;20045;-67
2021/07/18 10:39:43;;;;;;;6.25;3.28;;;41.90;65.20;;;;;;5020639;28;20060;-67
2021/07/18 10:42:49;;;;;;;7.32;3.55;;;40.80;68.90;;;;;;5020888;28;20048;-67
2021/07/18 10:45:55;;;;;;;4.72;3.50;;;39.30;69.90;;;;;;5022429;28;20411;-67
2021/07/18 10:48:59;;;;;;;7.00;3.53;;;37.60;71.30;;;;;;5022553;28;20041;-67
2021/07/18 10:52:11;;;;;;;7.32;3.30;;;36.60;73.10;;;;;;5026241;28;20052;-66
2021/07/18 10:55:23;;;;;;;6.47;3.42;;;36.10;75.10;;;;;;5022261;28;20052;-66
2021/07/18 10:58:40;;;;;;;8.20;4.07;;;36.30;73.50;;;;;;5032196;28;20040;-67
2021/07/18 11:01:44;;;;;;;5.25;4.65;;;34.90;75.40;;;;;;5031063;28;20044;-66
2021/07/18 11:04:53;;;;;;;9.32;4.05;;;34.20;77.00;;;;;;5031717;28;20044;-67
2021/07/18 11:07:57;;;;;;;7.05;3.88;;;35.80;74.60;;;;;;5031231;28;20420;-67
2021/07/18 11:11:01;;;;;;;8.95;4.57;;;35.10;75.50;;;;;;5031036;28;20495;-67
2021/07/18 11:14:28;;;;;;;7.47;3.35;;;34.40;75.80;;;;;;5031039;28;20416;-67
2021/07/18 11:17:33;;;;;;;5.32;4.00;;;34.90;76.40;;;;;;5030936;28;20040;-65
2021/07/18 11:20:42;;;;;;;6.10;3.92;;;34.70;76.60;;;;;;5031057;28;20052;-67
2021/07/18 11:23:56;;;;;;;5.15;4.03;;;34.20;76.90;;;;;;5031386;28;20049;-68
2021/07/18 11:27:21;;;;;;;7.80;4.10;;;34.50;77.10;;;;;;5031472;28;20100;-68
2021/07/18 11:30:40;;;;;;;5.38;3.95;;;36.40;75.60;;;;;;5030905;28;20404;-67
2021/07/18 11:33:54;;;;;;;7.15;4.15;;;37.80;72.40;;;;;;5030167;28;20049;-67
2021/07/18 11:37:01;;;;;;;7.28;4.10;;;37.10;72.10;;;;;;5030984;28;20091;-67
2021/07/18 11:40:09;;;;;;;5.70;3.47;;;36.40;73.60;;;;;;5030791;28;20477;-67
2021/07/18 11:43:14;;;;;;;7.35;3.75;;;36.20;75.40;;;;;;5030531;28;20051;-66
2021/07/18 11:46:21;;;;;;;4.95;3.95;;;36.30;73.60;;;;;;5030740;28;20052;-68
2021/07/18 11:49:27;;;;;;;7.88;3.58;;;35.30;72.20;;;;;;5030301;28;20116;-68
2021/07/18 11:52:32;;;;;;;6.82;4.18;;;35.40;73.90;;;;;;5030522;28;20072;-69
2021/07/18 11:55:40;;;;;;;8.75;4.13;;;37.00;73.00;;;;;;5030102;28;20044;-67
2021/07/18 11:58:45;;;;;;;8.60;4.32;;;37.10;71.10;;;;;;5030325;28;20041;-69
2021/07/18 12:01:52;;;;;;;6.63;4.47;;;36.00;72.20;;;;;;5029900;28;20049;-67
2021/07/18 12:05:07;;;;;;;8.88;4.45;;;35.00;73.10;;;;;;5030698;28;20044;-67
2021/07/18 12:08:12;;;;;;;7.00;4.80;;;34.30;76.00;;;;;;5030362;28;20056;-67
2021/07/18 12:11:29;;;;;;;7.32;4.80;;;34.20;75.10;;;;;;5030563;28;20056;-66
2021/07/18 12:14:34;;;;;;;5.93;4.18;;;33.80;77.10;;;;;;5029456;28;20479;-67
2021/07/18 12:17:38;;;;;;;4.80;4.20;;;34.30;76.70;;;;;;5030222;28;20495;-68
2021/07/18 12:20:42;;;;;;;5.53;4.50;;;34.40;76.40;;;;;;5030007;28;20044;-68
2021/07/18 12:24:13;;;;;;;12.35;5.43;;;35.70;76.10;;;;;;5029734;28;20049;-67
2021/07/18 12:27:19;;;;;;;8.95;5.30;;;36.90;72.90;;;;;;5030509;28;20053;-69
2021/07/18 12:30:24;;;;;;;5.63;4.93;;;37.20;72.50;;;;;;5029762;28;20049;-69
2021/07/18 12:33:29;;;;;;;8.00;4.70;;;37.70;71.60;;;;;;5029562;28;20040;-67
2021/07/18 12:36:53;;;;;;;5.28;4.65;;;37.70;71.20;;;;;;5030423;28;20033;-70
2021/07/18 12:40:03;;;;;;;7.75;4.97;;;37.70;69.90;;;;;;5030022;28;20047;-68
2021/07/18 12:43:09;;;;;;;7.30;4.65;;;38.10;68.90;;;;;;5029820;28;20049;-67
2021/07/18 12:46:19;;;;;;;9.20;4.72;;;38.60;69.30;;;;;;5029983;28;20041;-69
2021/07/18 12:49:24;;;;;;;7.38;4.63;;;38.20;69.20;;;;;;5030090;28;20053;-68
2021/07/18 12:52:28;;;;;;;7.88;4.50;;;38.40;68.60;;;;;;5029908;28;20396;-67
2021/07/18 12:55:41;;;;;;;7.45;4.93;;;37.60;68.80;;;;;;5030115;28;20048;-69
2021/07/18 12:58:50;;;;;;;6.18;4.75;;;36.40;68.20;;;;;;5029815;28;20519;-67
2021/07/18 13:02:12;;;;;;;6.22;4.90;;;35.30;70.20;;;;;;5029621;28;20053;-67
2021/07/18 13:05:17;;;;;;;12.63;5.13;;;34.30;71.20;;;;;;5030206;28;20045;-67
2021/07/18 13:08:42;;;;;;;6.75;4.15;;;34.10;71.90;;;;;;5029873;28;20427;-68
2021/07/18 13:11:54;;;;;;;6.80;4.32;;;34.90;70.80;;;;;;5030010;28;20396;-67
2021/07/18 13:15:12;;;;;;;5.90;4.38;;;35.60;71.60;;;;;;5029949;28;20155;-66
2021/07/18 13:18:17;;;;;;;6.65;4.10;;;35.90;71.20;;;;;;5030193;28;20057;-67
2021/07/18 13:21:23;;;;;;;6.13;4.10;;;36.20;72.20;;;;;;5028964;28;20113;-67
2021/07/18 13:24:35;;;;;;;8.38;4.50;;;36.30;71.40;;;;;;5030088;28;20328;-67
2021/07/18 13:27:40;;;;;;;4.70;3.85;;;36.00;71.10;;;;;;5029829;28;20040;-67
2021/07/18 13:30:45;;;;;;;7.50;4.57;;;35.50;72.40;;;;;;5029362;28;20037;-68
2021/07/18 13:33:49;;;;;;;10.77;4.05;;;35.00;73.00;;;;;;5029464;28;20706;-67
2021/07/18 13:36:57;;;;;;;6.50;4.32;;;35.00;72.60;;;;;;5028762;28;20036;-68
2021/07/18 13:40:20;;;;;;;8.60;4.32;;;34.50;73.30;;;;;;5029748;28;20045;-67
2021/07/18 13:43:28;;;;;;;8.82;4.22;;;33.70;73.10;;;;;;5028632;28;20060;-67
2021/07/18 13:46:33;;;;;;;7.03;4.40;;;33.60;73.20;;;;;;5029831;28;20048;-66
2021/07/18 13:49:37;;;;;;;7.10;4.03;;;33.10;74.10;;;;;;5029588;28;20040;-67
2021/07/18 13:52:41;;;;;;;10.77;5.15;;;33.30;74.30;;;;;;5029459;28;20041;-69
2021/07/18 13:55:47;;;;;;;10.50;4.03;;;32.50;74.00;;;;;;5032537;28;20045;-69
2021/07/18 13:58:54;;;;;;;9.52;4.70;;;32.30;74.30;;;;;;5032919;28;20045;-68
2021/07/18 14:01:59;;;;;;;10.15;3.83;;;32.20;74.90;;;;;;5033057;28;20049;-68
2021/07/18 14:05:05;;;;;;;5.72;4.45;;;32.30;75.50;;;;;;5033064;28;20044;-67
2021/07/18 14:08:10;;;;;;;5.07;4.05;;;32.50;75.50;;;;;;5032689;28;20213;-67
2021/07/18 14:11:14;;;;;;;7.97;4.30;;;33.00;74.90;;;;;;5032579;28;20530;-68
2021/07/18 14:14:18;;;;;;;5.30;4.18;;;33.20;74.80;;;;;;5032557;28;20052;-68
2021/07/18 14:17:22;;;;;;;7.05;4.25;;;33.20;74.90;;;;;;5032913;28;20048;-67
2021/07/18 14:20:28;;;;;;;10.27;4.97;;;33.10;75.70;;;;;;5032326;28;20049;-65
2021/07/18 14:23:34;;;;;;;7.25;4.72;;;32.80;75.00;;;;;;5032433;28;20163;-70
2021/07/18 14:26:38;;;;;;;6.43;4.57;;;32.60;74.90;;;;;;5032694;28;20037;-69
2021/07/18 14:29:42;;;;;;;7.13;4.60;;;32.30;76.50;;;;;;5032219;28;20048;-69
2021/07/18 14:32:47;;;;;;;7.90;4.97;;;31.60;77.70;;;;;;5032810;28;20048;-70
2021/07/18 14:35:51;;;;;;;8.50;4.70;;;31.40;78.20;;;;;;5032325;28;20048;-68
2021/07/18 14:38:56;;;;;;;7.15;4.65;;;31.20;78.40;;;;;;5032346;28;20396;-68
2021/07/18 14:42:00;;;;;;;7.38;5.10;;;31.40;79.10;;;;;;5031170;28;20397;-69
2021/07/18 14:45:07;;;;;;;6.15;4.50;;;31.90;77.50;;;;;;5032164;28;20053;-68
2021/07/18 14:48:11;;;;;;;10.90;4.85;;;32.30;75.80;;;;;;5031228;28;20499;-68
2021/07/18 14:51:16;;;;;;;8.02;4.20;;;32.60;76.90;;;;;;5031613;28;20407;-67
2021/07/18 14:54:20;;;;;;;9.05;4.68;;;33.20;77.20;;;;;;5031763;28;20410;-67
2021/07/18 14:57:24;;;;;;;7.53;4.57;;;33.30;76.10;;;;;;5032014;28;20040;-68
2021/07/18 15:00:28;;;;;;;11.90;4.95;;;33.00;76.10;;;;;;5031038;28;20044;-67
2021/07/18 15:03:33;;;;;;;7.85;4.72;;;33.00;76.40;;;;;;5031914;28;20045;-68
2021/07/18 15:06:37;;;;;;;11.85;4.47;;;33.30;76.30;;;;;;5031266;28;20424;-68
2021/07/18 15:09:42;;;;;;;8.52;4.68;;;33.20;75.50;;;;;;5031592;28;20040;-69
2021/07/18 15:12:47;;;;;;;6.47;4.93;;;33.00;74.70;;;;;;5031638;28;20530;-69
2021/07/18 15:15:52;;;;;;;9.48;4.60;;;33.00;75.60;;;;;;5031677;28;20400;-68
2021/07/18 15:18:58;;;;;;;7.55;4.57;;;32.70;74.10;;;;;;5031383;28;20048;-69
2021/07/18 15:22:02;;;;;;;12.40;4.70;;;32.20;76.60;;;;;;5030908;28;20491;-69
2021/07/18 15:25:08;;;;;;;8.20;4.53;;;32.80;77.20;;;;;;5030440;28;20108;-67
2021/07/18 15:28:12;;;;;;;7.15;4.78;;;33.10;74.90;;;;;;5031506;28;20044;-68
2021/07/18 15:31:18;;;;;;;5.18;4.43;;;33.00;75.10;;;;;;5030661;28;20120;-68
2021/07/18 15:34:24;;;;;;;6.20;4.57;;;33.10;76.10;;;;;;5031299;28;20045;-68
2021/07/18 15:37:29;;;;;;;7.07;4.97;;;33.10;75.30;;;;;;5031199;28;20049;-68
2021/07/18 15:40:33;;;;;;;7.07;4.72;;;33.10;75.30;;;;;;5018411;28;20052;-69
2021/07/18 15:43:37;;;;;;;7.20;4.40;;;33.30;75.10;;;;;;5031107;28;20040;-69
2021/07/18 15:46:41;;;;;;;8.32;4.93;;;33.00;75.20;;;;;;5030829;28;20045;-67
2021/07/18 15:49:45;;;;;;;7.07;4.50;;;33.10;76.10;;;;;;5030895;28;20231;-69
2021/07/18 15:52:50;;;;;;;6.75;4.55;;;33.30;75.80;;;;;;5030941;28;20044;-69
2021/07/18 15:55:54;;;;;;;6.82;4.90;;;32.60;74.20;;;;;;5030801;28;20052;-69
2021/07/18 15:58:58;;;;;;;7.40;5.00;;;31.90;75.70;;;;;;5030877;28;20380;-69
2021/07/18 16:02:04;;;;;;;7.10;5.00;;;31.20;76.70;;;;;;5030234;28;20068;-69
2021/07/18 16:05:10;;;;;;;9.57;5.32;;;31.10;77.50;;;;;;5031038;28;20070;-69